Northfield, MA (01360)

3:09 PM EDT on March 27, 2015 (GMT -0400)
Weather at NMH | | Change Station
CLOSE
Current Station
Personal Weather Station
Location: Northfield Mount Hermon, MA
Elevation: 436 ft
Nearby Weather Stations

Elev 436 ft 42.67 °N, 72.48 °W | Updated 41 seconds ago

Overcast
Overcast
44.1 °F
Feels Like 44 °F
N
1.0
Wind Variable Wind from North
Gusts 3.0 mph

Today
High -- | Low -- °F
--% Chance of Precip.
Yesterday
High -- | Low -- °F
Precip. -- in
6:41 AM 7:09 PM
First Quarter, 55% visible
Pressure 29.69 in
Visibility 10.0 miles
Clouds Overcast 3600 ft
Windchill 44 °F
Dew Point 36 °F
Humidity 73%
Rainfall 0.09 in
Snow Depth Not available.
UV 2 out of 12
Pollen 1.70 out of 12
Air Quality Not available.
Flu Activity Not available.
METAR KORE 271852Z AUTO 35005KT 10SM OVC036 06/00 A2968 RMK AO2 SLP054 T00560000

More Conditions Fewer Conditions

Pressure 29.69 in
Visibility 10.0 miles
Clouds Overcast 3600 ft
Windchill 44 °F
Dew Point 36 °F
Humidity 73%
Rainfall 0.09 in
Snow Depth Not available.
UV 2 out of 12
Pollen 1.70 out of 12
Air Quality Not available.
Flu Activity Not available.
METAR KORE 271852Z AUTO 35005KT 10SM OVC036 06/00 A2968 RMK AO2 SLP054 T00560000

More Conditions Fewer Conditions

10-Day Weather Forecast

Almanac

Astronomy

Mar. 27, 2015 Rise Set
Actual Time
Civil Twilight
Nautical Twilight
Astronomical Twilight
Moon
Length of Visible Light
Length of Day
Tomorrow will be .
, % of the Moon is Illuminated

Today's Extremes

State Highs State Lows

Community

WunderPhotos

Upload Photos

1,808,789 photos uploaded!

WunderBlogs® & News

Nearby

Air Quality

  Air Quality AQ Index Pollutant
Not available.

Snow Depth

Station Depth Elevation

Earthquake Activity

City Distance Mag. Time & Date
Minimum magnitude displayed is 2.5.

Coastal Water Temperatures

Place Temperature

Stations

Nearby Weather Stations

Station Location Temp. Windchill Dew Point Humidity Wind Precip. Elev Updated Type